Buoy 41997

sailwx.info

Track history (hours):
 
Tides and Currents Weather Stations Pressure Air Temp Water Temp Dewpoint Dewpoint Depression Visibility Wind Speed Wind Dir Waves Ship Positions

Drifting buoy 41997

Last reported at 2014-Oct-31 05:15 UTC. Time now 2014-Oct-31 07:48 UTC.
Position N 26°24' W 033°57'.

Water temperature 25.9 ° C

Date/timePositionNaut miles runAvg speedWind from/ knotsBaromVisibWave heightAir tempDewpointWater temp
2014-Oct-31 05:15N 26°24' W 033°57'2 0.9 25.9
2014-Oct-31 03:30N 26°25' W 033°55'0 0.0 25.9
2014-Oct-31 00:15N 26°25' W 033°55'0 0.0 25.9
2014-Oct-30 23:30N 26°25' W 033°55'0 0.0 25.9
2014-Oct-30 23:15N 26°25' W 033°55'0 0.0 25.9
2014-Oct-30 22:45N 26°25' W 033°55'0 0.0 25.9
2014-Oct-30 22:30N 26°25' W 033°55'1 1.2 25.9
2014-Oct-30 21:45N 26°26' W 033°55'1 1.0 26.0
2014-Oct-30 20:30N 26°27' W 033°54'0 0.0 26.1
2014-Oct-30 20:00N 26°27' W 033°54'1 1.2 26.1
2014-Oct-30 18:45N 26°28' W 033°53'0 0.0 26.2
2014-Oct-30 17:15N 26°28' W 033°53'0 0.6 26.2
2014-Oct-30 16:45N 26°28' W 033°53'1 0.8 26.3
2014-Oct-30 15:15N 26°29' W 033°54'0 0.0 26.4
2014-Oct-30 15:00N 26°29' W 033°54'2 0.8 26.5
2014-Oct-30 13:00N 26°29' W 033°52'0 0.0 26.2
2014-Oct-30 12:15N 26°29' W 033°52'2 6.0 26.0
2014-Oct-30 12:00N 26°31' W 033°51'0 0.0 26.0
2014-Oct-30 10:30N 26°31' W 033°51'0 0.0 25.8
2014-Oct-30 09:15N 26°31' W 033°51'0 0.2 25.7
2014-Oct-30 07:45N 26°31' W 033°51'0 1.7 25.7
2014-Oct-30 07:30N 26°31' W 033°51'0 0.0 25.7
2014-Oct-30 07:15N 26°31' W 033°51'0 0.0 25.7
2014-Oct-30 05:45N 26°31' W 033°51'0 0.5 25.7
2014-Oct-30 05:30N 26°31' W 033°51'0 0.0 25.7
2014-Oct-30 05:15N 26°31' W 033°51'2 1.0 25.7
2014-Oct-30 03:45N 26°31' W 033°49'0 0.0 25.7
2014-Oct-29 23:45N 26°31' W 033°49'0 0.4 25.7
2014-Oct-29 23:00N 26°31' W 033°50'2 9.1 25.8
2014-Oct-29 22:45N 26°32' W 033°47'1 0.9 25.8
2014-Oct-29 22:00N 26°33' W 033°47'0 0.0 25.8
2014-Oct-29 20:30N 26°33' W 033°47'1 0.5 26.0
2014-Oct-29 19:15N 26°33' W 033°47'0 0.0 26.3
2014-Oct-29 19:00N 26°33' W 033°47'1 0.4 26.3
2014-Oct-29 17:15N 26°34' W 033°48'0 0.5 27.2
2014-Oct-29 17:00N 26°34' W 033°48'0 0.5 27.4
2014-Oct-29 16:45N 26°34' W 033°48'0 0.1 27.4
2014-Oct-29 15:15N 26°34' W 033°48'2 0.5 26.7
2014-Oct-29 11:45N 26°36' W 033°47'0 0.0 25.7
2014-Oct-29 11:30N 26°36' W 033°47'0 0.0 25.7
2014-Oct-29 10:45N 26°36' W 033°47'0 0.0 25.6
2014-Oct-29 08:00N 26°35' W 033°47'0 0.9 25.6
2014-Oct-29 07:45N 26°35' W 033°47'0 1.7 25.6
2014-Oct-29 07:30N 26°36' W 033°47'1 0.8 25.6
2014-Oct-29 06:30N 26°36' W 033°48'0 0.0 25.6
2014-Oct-29 06:15N 26°36' W 033°48'1 2.1 25.6
2014-Oct-29 06:00N 26°37' W 033°47'0 0.8 25.6
2014-Oct-29 05:45N 26°37' W 033°47'0 0.0 25.6
2014-Oct-29 05:30N 26°37' W 033°47'0 0.1 25.6
2014-Oct-29 04:00N 26°37' W 033°47'0 0.0 25.7
2014-Oct-29 03:45N 26°37' W 033°47'0 0.0 25.6
2014-Oct-29 00:15N 26°37' W 033°47'0 0.0 25.7
2014-Oct-29 00:00N 26°37' W 033°47'0 0.5 25.7
2014-Oct-28 23:15N 26°37' W 033°47'0 0.0 25.7
2014-Oct-28 22:30N 26°37' W 033°47'1 0.9 25.7
2014-Oct-28 21:00N 26°38' W 033°46'1 1.0 25.7
2014-Oct-28 19:45N 26°39' W 033°45'0 0.0 25.8
2014-Oct-28 19:15N 26°39' W 033°45'0 0.0 25.9
2014-Oct-28 18:00N 26°39' W 033°45'1 2.5 26.1
2014-Oct-28 17:30N 26°39' W 033°45'0 0.0 26.1
2014-Oct-28 17:00N 26°39' W 033°45'0 0.0 26.1
2014-Oct-28 15:30N 26°39' W 033°45'0 0.0 26.1
2014-Oct-28 15:15N 26°39' W 033°45'2 0.7 26.1
2014-Oct-28 12:15N 26°41' W 033°43'0 0.0 26.0
2014-Oct-28 12:00N 26°41' W 033°43'1 1.6 26.0
2014-Oct-28 11:15N 26°42' W 033°43'0 0.0 25.9
2014-Oct-28 11:00N 26°42' W 033°43'0 0.0 25.9
2014-Oct-28 08:45N 26°42' W 033°43'0 2.0 25.9
2014-Oct-28 08:30N 26°43' W 033°43'0 0.0 25.9
2014-Oct-28 08:15N 26°43' W 033°43'0 0.0 25.9
2014-Oct-28 07:45N 26°43' W 033°43'0 0.8 25.9
2014-Oct-28 07:15N 26°43' W 033°43'0 0.8 25.9
2014-Oct-28 06:45N 26°43' W 033°43'0 0.0 25.9
2014-Oct-28 06:15N 26°43' W 033°43'1 1.8 25.9
2014-Oct-28 05:45N 26°44' W 033°44'0 0.0 25.9
2014-Oct-28 04:15N 26°44' W 033°44'2 6.9 25.9
2014-Oct-28 04:00N 26°44' W 033°42'0 0.0 25.9
2014-Oct-27 23:45N 26°44' W 033°42'0 0.0 25.9
2014-Oct-27 23:30N 26°44' W 033°42'0 0.3 26.0
2014-Oct-27 22:45N 26°44' W 033°42'0 0.4 26.0
2014-Oct-27 21:45N 26°44' W 033°42'1 0.5 26.0
2014-Oct-27 20:00N 26°45' W 033°41'0 0.0 26.0
2014-Oct-27 19:45N 26°45' W 033°41'1 3.1 26.1
2014-Oct-27 19:30N 26°44' W 033°42'0 0.0 26.1
2014-Oct-27 19:15N 26°44' W 033°42'0 0.2 26.1
2014-Oct-27 18:30N 26°44' W 033°42'0 0.0 26.1
2014-Oct-27 18:15N 26°44' W 033°42'0 0.3 26.1
2014-Oct-27 17:45N 26°44' W 033°41'1 1.1 26.2
2014-Oct-27 17:15N 26°45' W 033°42'0 0.0 26.2
2014-Oct-27 15:45N 26°45' W 033°42'0 0.0 26.1
2014-Oct-27 15:30N 26°45' W 033°42'3 1.0 26.1
2014-Oct-27 12:30N 26°46' W 033°39'0 0.0 26.0
2014-Oct-27 12:15N 26°46' W 033°39'1 1.8 26.0
2014-Oct-27 11:30N 26°47' W 033°38'0 0.0 26.0
2014-Oct-27 08:45N 26°47' W 033°38'0 0.0 26.0
2014-Oct-27 08:00N 26°47' W 033°38'0 0.0 26.0
2014-Oct-27 07:45N 26°47' W 033°38'0 2.0 26.0
2014-Oct-27 07:30N 26°47' W 033°39'0 0.0 26.0
2014-Oct-27 07:15N 26°47' W 033°39'0 0.0 26.0
2014-Oct-27 07:00N 26°47' W 033°39'0 1.0 26.0
2014-Oct-27 06:30N 26°48' W 033°39'1 2.1 26.0
2014-Oct-27 06:15N 26°48' W 033°39'0 0.0 26.0
2014-Oct-27 04:30N 26°48' W 033°39'0 0.0 26.0
2014-Oct-27 04:15N 26°48' W 033°39'0 0.0 26.0
2014-Oct-27 00:00N 26°48' W 033°39'0 0.0 26.0
2014-Oct-26 23:15N 26°48' W 033°39'2 6.2 26.0
2014-Oct-26 23:00N 26°48' W 033°37'0 0.0 26.0
2014-Oct-26 22:15N 26°48' W 033°37'0 0.0 26.0
2014-Oct-26 22:00N 26°48' W 033°37'1 0.4 26.0
2014-Oct-26 20:30N 26°49' W 033°37'0 0.0 26.0
2014-Oct-26 19:30N 26°49' W 033°37'0 0.0 26.0
2014-Oct-26 18:45N 26°49' W 033°37'0 0.0 26.0
2014-Oct-26 18:00N 26°49' W 033°37'0 0.0 26.0
2014-Oct-26 17:45N 26°49' W 033°37'3 1.5 26.0
2014-Oct-26 16:00N 26°51' W 033°35'0 0.0 26.0
2014-Oct-26 15:45N 26°51' W 033°35'0 0.0 26.0
2014-Oct-26 14:15N 26°51' W 033°35'0 0.1 25.9
2014-Oct-26 12:45N 26°51' W 033°35'0 0.0 25.8
2014-Oct-26 12:00N 26°51' W 033°35'1 4.2 25.8
2014-Oct-26 11:45N 26°52' W 033°35'0 0.0 25.8
2014-Oct-26 09:15N 26°52' W 033°35'1 1.2 25.7
2014-Oct-26 08:15N 26°53' W 033°34'0 0.0 25.7
2014-Oct-26 08:00N 26°53' W 033°34'1 4.8 25.7
2014-Oct-26 07:45N 26°52' W 033°35'1 4.8 25.7
2014-Oct-26 07:30N 26°53' W 033°34'0 0.0 25.7
2014-Oct-26 06:30N 26°53' W 033°34'1 0.4 25.7
2014-Oct-26 04:30N 26°53' W 033°34'1 0.2 25.7
2014-Oct-26 00:15N 26°54' W 033°34'0 0.1 25.7
2014-Oct-25 23:30N 26°54' W 033°34'0 0.0 25.8
2014-Oct-25 23:15N 26°54' W 033°34'1 2.2 25.8
2014-Oct-25 22:45N 26°55' W 033°34'1 1.4 25.8
2014-Oct-25 21:45N 26°56' W 033°32'0 0.0 25.8
2014-Oct-25 21:00N 26°56' W 033°32'0 0.0 25.9
2014-Oct-25 19:45N 26°56' W 033°32'1 3.0 25.9
2014-Oct-25 19:15N 26°56' W 033°34'0 0.0 25.9
2014-Oct-25 18:00N 26°56' W 033°34'1 0.5 26.0
2014-Oct-25 16:00N 26°57' W 033°33'1 0.4 26.0
2014-Oct-25 13:00N 26°58' W 033°34'0 0.3 25.8
2014-Oct-25 12:15N 26°58' W 033°34'1 2.4 25.7
2014-Oct-25 12:00N 26°58' W 033°34'0 0.0 25.7
2014-Oct-25 11:30N 26°58' W 033°34'0 0.0 25.7
2014-Oct-25 11:15N 26°58' W 033°34'0 0.0 25.7
2014-Oct-25 10:30N 26°58' W 033°34'0 0.0 25.7
2014-Oct-25 08:45N 26°58' W 033°34'1 2.5 25.7
2014-Oct-25 08:30N 26°58' W 033°34'0 0.0 25.7
2014-Oct-25 08:15N 26°58' W 033°34'0 0.0 25.7
2014-Oct-25 08:00N 26°58' W 033°34'0 0.0 25.7
2014-Oct-25 07:00N 26°58' W 033°34'1 6.0 25.7
2014-Oct-25 06:45N 26°59' W 033°34'0 0.0 25.7
2014-Oct-25 06:30N 26°59' W 033°34'0 0.0 25.7
2014-Oct-25 04:45N 26°59' W 033°34'1 4.3 25.7
2014-Oct-25 04:30N 27°00' W 033°34'0 0.0 25.7
2014-Oct-25 03:00N 27°00' W 033°34'0 0.0 25.8
2014-Oct-24 23:45N 27°00' W 033°34'1 0.8 25.7
2014-Oct-24 23:00N 27°00' W 033°35'2 2.0 25.7
2014-Oct-24 22:15N 27°01' W 033°35'0 0.0 25.7
2014-Oct-24 22:00N 27°01' W 033°35'1 0.4 25.7
2014-Oct-24 20:00N 27°02' W 033°36'1 5.3 25.7
2014-Oct-24 19:45N 27°03' W 033°36'0 0.0 25.7
2014-Oct-24 18:15N 27°03' W 033°36'0 0.0 25.8
2014-Oct-24 18:00N 27°03' W 033°36'0 0.0 25.8
2014-Oct-24 16:15N 27°03' W 033°36'0 0.0 25.8
2014-Oct-24 16:00N 27°03' W 033°36'2 1.1 25.8
2014-Oct-24 14:30N 27°04' W 033°37'1 0.5 25.8
2014-Oct-24 12:30N 27°05' W 033°37'0 0.0 25.7
2014-Oct-24 11:45N 27°05' W 033°37'1 0.8 25.7
2014-Oct-24 11:00N 27°05' W 033°38'0 0.0 25.7
2014-Oct-24 10:45N 27°05' W 033°38'0 0.3 25.6
2014-Oct-24 09:15N 27°05' W 033°38'0 0.0 25.6
2014-Oct-24 08:30N 27°05' W 033°38'0 0.0 25.6
2014-Oct-24 08:15N 27°05' W 033°38'1 0.8 25.6
2014-Oct-24 07:00N 27°06' W 033°39'0 0.0 25.6
2014-Oct-24 06:45N 27°06' W 033°39'1 0.4 25.6
2014-Oct-24 05:15N 27°06' W 033°38'0 0.0 25.6
2014-Oct-24 05:00N 27°06' W 033°38'1 6.0 25.6
2014-Oct-24 04:45N 27°08' W 033°39'0 0.0 25.6
2014-Oct-24 03:15N 27°08' W 033°39'0 0.0 25.6
2014-Oct-24 00:15N 27°07' W 033°39'0 0.0 25.6
2014-Oct-24 00:00N 27°07' W 033°39'0 0.2 25.6
2014-Oct-23 23:15N 27°07' W 033°39'1 1.4 25.6
2014-Oct-23 22:30N 27°08' W 033°39'0 0.0 25.6
2014-Oct-23 22:00N 27°08' W 033°39'1 0.8 25.6
2014-Oct-23 20:15N 27°10' W 033°40'1 0.8 25.6
2014-Oct-23 18:30N 27°11' W 033°39'0 0.0 25.7
2014-Oct-23 18:15N 27°11' W 033°39'0 0.0 25.7
2014-Oct-23 16:45N 27°11' W 033°39'0 0.3 25.8
2014-Oct-23 16:30N 27°11' W 033°39'0 0.0 25.8
2014-Oct-23 16:15N 27°11' W 033°39'2 1.3 25.8
2014-Oct-23 14:45N 27°12' W 033°41'0 0.0 25.8
2014-Oct-23 13:00N 27°12' W 033°41'1 2.3 25.7
2014-Oct-23 12:45N 27°13' W 033°41'0 0.3 25.7
2014-Oct-23 12:15N 27°13' W 033°41'0 0.0 25.7
2014-Oct-23 12:00N 27°13' W 033°41'1 1.2 25.7
2014-Oct-23 11:15N 27°14' W 033°41'0 0.0 25.7
2014-Oct-23 09:00N 27°14' W 033°41'0 0.0 25.6
2014-Oct-23 08:45N 27°14' W 033°41'0 0.2 25.6
2014-Oct-23 07:00N 27°14' W 033°41'1 1.9 25.6
2014-Oct-23 06:30N 27°15' W 033°41'0 0.0 25.7
2014-Oct-23 05:30N 27°15' W 033°41'0 0.0 25.7
2014-Oct-23 05:15N 27°15' W 033°41'0 0.0 25.6
2014-Oct-23 05:00N 27°15' W 033°41'2 1.0 25.7
2014-Oct-23 03:30N 27°16' W 033°42'0 0.0 25.7
2014-Oct-23 03:15N 27°16' W 033°42'1 0.3 25.7
2014-Oct-22 23:45N 27°17' W 033°42'1 1.1 25.7
2014-Oct-22 22:45N 27°18' W 033°42'1 0.3 25.7
2014-Oct-22 18:45N 27°19' W 033°42'1 0.4 25.8
2014-Oct-22 17:00N 27°20' W 033°42'0 0.0 25.8
2014-Oct-22 16:45N 27°20' W 033°42'0 0.0 25.8
2014-Oct-22 16:30N 27°20' W 033°42'1 0.9 25.9
2014-Oct-22 15:00N 27°21' W 033°43'0 0.0 25.8
2014-Oct-22 14:45N 27°21' W 033°43'0 0.2 25.8
2014-Oct-22 12:30N 27°21' W 033°43'0 0.0 25.8
2014-Oct-22 12:15N 27°21' W 033°43'0 0.5 25.8
2014-Oct-22 11:30N 27°22' W 033°42'0 0.0 25.8
2014-Oct-22 09:15N 27°22' W 033°42'0 0.0 25.7
2014-Oct-22 08:45N 27°22' W 033°42'0 0.0 25.7
2014-Oct-22 08:30N 27°22' W 033°42'2 1.2 25.7
2014-Oct-22 07:15N 27°23' W 033°42'1 2.2 25.7
2014-Oct-22 07:00N 27°23' W 033°42'1 0.4 25.7
2014-Oct-22 05:45N 27°23' W 033°42'0 0.0 25.7
2014-Oct-22 05:30N 27°23' W 033°42'0 0.0 25.7
2014-Oct-22 05:15N 27°23' W 033°42'1 0.6 25.7
2014-Oct-22 03:45N 27°24' W 033°43'0 0.0 25.7
2014-Oct-22 03:30N 27°24' W 033°43'2 0.6 25.7
2014-Oct-22 00:45N 27°26' W 033°43'0 0.0 25.7
2014-Oct-22 00:00N 27°26' W 033°43'1 1.9 25.8
2014-Oct-21 23:15N 27°27' W 033°42'0 0.0 25.8
2014-Oct-21 23:00N 27°27' W 033°42'0 0.0 25.8
2014-Oct-21 21:30N 27°27' W 033°42'0 0.0 25.8
2014-Oct-21 21:15N 27°27' W 033°42'1 0.8 25.8
2014-Oct-21 19:45N 27°28' W 033°41'1 1.9 25.8
2014-Oct-21 19:15N 27°28' W 033°42'1 2.9 25.8
2014-Oct-21 19:00N 27°27' W 033°43'1 5.2 25.8
2014-Oct-21 18:45N 27°29' W 033°43'0 0.0 25.8
2014-Oct-21 17:30N 27°29' W 033°43'0 1.1 25.8
2014-Oct-21 17:15N 27°29' W 033°42'0 0.0 25.8
2014-Oct-21 17:00N 27°29' W 033°42'0 0.0 25.8
2014-Oct-21 16:45N 27°29' W 033°42'1 0.5 25.8
2014-Oct-21 15:15N 27°29' W 033°43'0 0.0 25.8
2014-Oct-21 15:00N 27°29' W 033°43'2 0.8 25.8
2014-Oct-21 12:00N 27°31' W 033°41'0 0.0 25.8
2014-Oct-21 11:45N 27°31' W 033°41'0 0.0 25.8
2014-Oct-21 11:00N 27°31' W 033°41'0 0.0 25.8
2014-Oct-21 09:15N 27°31' W 033°41'0 0.0 25.8
2014-Oct-21 09:00N 27°31' W 033°41'0 0.0 25.8
2014-Oct-21 08:00N 27°31' W 033°41'1 2.4 25.8
2014-Oct-21 07:30N 27°32' W 033°42'0 0.0 25.8
2014-Oct-21 06:30N 27°32' W 033°42'0 0.0 25.8
2014-Oct-21 06:15N 27°32' W 033°42'1 1.6 25.7
2014-Oct-21 05:45N 27°32' W 033°41'0 0.0 25.8
2014-Oct-21 05:30N 27°32' W 033°41'1 4.8 25.8
2014-Oct-21 05:15N 27°33' W 033°41'   25.8
Track history (hours):
 
Tides and Currents Weather Stations Pressure Air Temp Water Temp Dewpoint Dewpoint Depression Visibility Wind Speed Wind Dir Waves Ship Positions

Drifting buoy 41997

Last reported at 2014-Oct-31 05:15 UTC. Time now 2014-Oct-31 07:48 UTC.
Position N 26°24' W 033°57'.

Water temperature 25.9 ° C

Date/timePositionNaut miles runAvg speedWind from/ knotsBaromVisibWave heightAir tempDewpointWater temp
2014-Oct-31 05:15N 26°24' W 033°57'2 0.9 25.9
2014-Oct-31 03:30N 26°25' W 033°55'0 0.0 25.9
2014-Oct-31 00:15N 26°25' W 033°55'0 0.0 25.9
2014-Oct-30 23:30N 26°25' W 033°55'0 0.0 25.9
2014-Oct-30 23:15N 26°25' W 033°55'0 0.0 25.9
2014-Oct-30 22:45N 26°25' W 033°55'0 0.0 25.9
2014-Oct-30 22:30N 26°25' W 033°55'1 1.2 25.9
2014-Oct-30 21:45N 26°26' W 033°55'1 1.0 26.0
2014-Oct-30 20:30N 26°27' W 033°54'0 0.0 26.1
2014-Oct-30 20:00N 26°27' W 033°54'1 1.2 26.1
2014-Oct-30 18:45N 26°28' W 033°53'0 0.0 26.2
2014-Oct-30 17:15N 26°28' W 033°53'0 0.6 26.2
2014-Oct-30 16:45N 26°28' W 033°53'1 0.8 26.3
2014-Oct-30 15:15N 26°29' W 033°54'0 0.0 26.4
2014-Oct-30 15:00N 26°29' W 033°54'2 0.8 26.5
2014-Oct-30 13:00N 26°29' W 033°52'0 0.0 26.2
2014-Oct-30 12:15N 26°29' W 033°52'2 6.0 26.0
2014-Oct-30 12:00N 26°31' W 033°51'0 0.0 26.0
2014-Oct-30 10:30N 26°31' W 033°51'0 0.0 25.8
2014-Oct-30 09:15N 26°31' W 033°51'0 0.2 25.7
2014-Oct-30 07:45N 26°31' W 033°51'0 1.7 25.7
2014-Oct-30 07:30N 26°31' W 033°51'0 0.0 25.7
2014-Oct-30 07:15N 26°31' W 033°51'0 0.0 25.7
2014-Oct-30 05:45N 26°31' W 033°51'0 0.5 25.7
2014-Oct-30 05:30N 26°31' W 033°51'0 0.0 25.7
2014-Oct-30 05:15N 26°31' W 033°51'2 1.0 25.7
2014-Oct-30 03:45N 26°31' W 033°49'0 0.0 25.7
2014-Oct-29 23:45N 26°31' W 033°49'0 0.4 25.7
2014-Oct-29 23:00N 26°31' W 033°50'2 9.1 25.8
2014-Oct-29 22:45N 26°32' W 033°47'1 0.9 25.8
2014-Oct-29 22:00N 26°33' W 033°47'0 0.0 25.8
2014-Oct-29 20:30N 26°33' W 033°47'1 0.5 26.0
2014-Oct-29 19:15N 26°33' W 033°47'0 0.0 26.3
2014-Oct-29 19:00N 26°33' W 033°47'1 0.4 26.3
2014-Oct-29 17:15N 26°34' W 033°48'0 0.5 27.2
2014-Oct-29 17:00N 26°34' W 033°48'0 0.5 27.4
2014-Oct-29 16:45N 26°34' W 033°48'0 0.1 27.4
2014-Oct-29 15:15N 26°34' W 033°48'2 0.5 26.7
2014-Oct-29 11:45N 26°36' W 033°47'0 0.0 25.7
2014-Oct-29 11:30N 26°36' W 033°47'0 0.0 25.7
2014-Oct-29 10:45N 26°36' W 033°47'0 0.0 25.6
2014-Oct-29 08:00N 26°35' W 033°47'0 0.9 25.6
2014-Oct-29 07:45N 26°35' W 033°47'0 1.7 25.6
2014-Oct-29 07:30N 26°36' W 033°47'1 0.8 25.6
2014-Oct-29 06:30N 26°36' W 033°48'0 0.0 25.6
2014-Oct-29 06:15N 26°36' W 033°48'1 2.1 25.6
2014-Oct-29 06:00N 26°37' W 033°47'0 0.8 25.6
2014-Oct-29 05:45N 26°37' W 033°47'0 0.0 25.6
2014-Oct-29 05:30N 26°37' W 033°47'0 0.1 25.6
2014-Oct-29 04:00N 26°37' W 033°47'0 0.0 25.7
2014-Oct-29 03:45N 26°37' W 033°47'0 0.0 25.6
2014-Oct-29 00:15N 26°37' W 033°47'0 0.0 25.7
2014-Oct-29 00:00N 26°37' W 033°47'0 0.5 25.7
2014-Oct-28 23:15N 26°37' W 033°47'0 0.0 25.7
2014-Oct-28 22:30N 26°37' W 033°47'1 0.9 25.7
2014-Oct-28 21:00N 26°38' W 033°46'1 1.0 25.7
2014-Oct-28 19:45N 26°39' W 033°45'0 0.0 25.8
2014-Oct-28 19:15N 26°39' W 033°45'0 0.0 25.9
2014-Oct-28 18:00N 26°39' W 033°45'1 2.5 26.1
2014-Oct-28 17:30N 26°39' W 033°45'0 0.0 26.1
2014-Oct-28 17:00N 26°39' W 033°45'0 0.0 26.1
2014-Oct-28 15:30N 26°39' W 033°45'0 0.0 26.1
2014-Oct-28 15:15N 26°39' W 033°45'2 0.7 26.1
2014-Oct-28 12:15N 26°41' W 033°43'0 0.0 26.0
2014-Oct-28 12:00N 26°41' W 033°43'1 1.6 26.0
2014-Oct-28 11:15N 26°42' W 033°43'0 0.0 25.9
2014-Oct-28 11:00N 26°42' W 033°43'0 0.0 25.9
2014-Oct-28 08:45N 26°42' W 033°43'0 2.0 25.9
2014-Oct-28 08:30N 26°43' W 033°43'0 0.0 25.9
2014-Oct-28 08:15N 26°43' W 033°43'0 0.0 25.9
2014-Oct-28 07:45N 26°43' W 033°43'0 0.8 25.9
2014-Oct-28 07:15N 26°43' W 033°43'0 0.8 25.9
2014-Oct-28 06:45N 26°43' W 033°43'0 0.0 25.9
2014-Oct-28 06:15N 26°43' W 033°43'1 1.8 25.9
2014-Oct-28 05:45N 26°44' W 033°44'0 0.0 25.9
2014-Oct-28 04:15N 26°44' W 033°44'2 6.9 25.9
2014-Oct-28 04:00N 26°44' W 033°42'0 0.0 25.9
2014-Oct-27 23:45N 26°44' W 033°42'0 0.0 25.9
2014-Oct-27 23:30N 26°44' W 033°42'0 0.3 26.0
2014-Oct-27 22:45N 26°44' W 033°42'0 0.4 26.0
2014-Oct-27 21:45N 26°44' W 033°42'1 0.5 26.0
2014-Oct-27 20:00N 26°45' W 033°41'0 0.0 26.0
2014-Oct-27 19:45N 26°45' W 033°41'1 3.1 26.1
2014-Oct-27 19:30N 26°44' W 033°42'0 0.0 26.1
2014-Oct-27 19:15N 26°44' W 033°42'0 0.2 26.1
2014-Oct-27 18:30N 26°44' W 033°42'0 0.0 26.1
2014-Oct-27 18:15N 26°44' W 033°42'0 0.3 26.1
2014-Oct-27 17:45N 26°44' W 033°41'1 1.1 26.2
2014-Oct-27 17:15N 26°45' W 033°42'0 0.0 26.2
2014-Oct-27 15:45N 26°45' W 033°42'0 0.0 26.1
2014-Oct-27 15:30N 26°45' W 033°42'3 1.0 26.1
2014-Oct-27 12:30N 26°46' W 033°39'0 0.0 26.0
2014-Oct-27 12:15N 26°46' W 033°39'1 1.8 26.0
2014-Oct-27 11:30N 26°47' W 033°38'0 0.0 26.0
2014-Oct-27 08:45N 26°47' W 033°38'0 0.0 26.0
2014-Oct-27 08:00N 26°47' W 033°38'0 0.0 26.0
2014-Oct-27 07:45N 26°47' W 033°38'0 2.0 26.0
2014-Oct-27 07:30N 26°47' W 033°39'0 0.0 26.0
2014-Oct-27 07:15N 26°47' W 033°39'0 0.0 26.0
2014-Oct-27 07:00N 26°47' W 033°39'0 1.0 26.0
2014-Oct-27 06:30N 26°48' W 033°39'1 2.1 26.0
2014-Oct-27 06:15N 26°48' W 033°39'0 0.0 26.0
2014-Oct-27 04:30N 26°48' W 033°39'0 0.0 26.0
2014-Oct-27 04:15N 26°48' W 033°39'0 0.0 26.0
2014-Oct-27 00:00N 26°48' W 033°39'0 0.0 26.0
2014-Oct-26 23:15N 26°48' W 033°39'2 6.2 26.0
2014-Oct-26 23:00N 26°48' W 033°37'0 0.0 26.0
2014-Oct-26 22:15N 26°48' W 033°37'0 0.0 26.0
2014-Oct-26 22:00N 26°48' W 033°37'1 0.4 26.0
2014-Oct-26 20:30N 26°49' W 033°37'0 0.0 26.0
2014-Oct-26 19:30N 26°49' W 033°37'0 0.0 26.0
2014-Oct-26 18:45N 26°49' W 033°37'0 0.0 26.0
2014-Oct-26 18:00N 26°49' W 033°37'0 0.0 26.0
2014-Oct-26 17:45N 26°49' W 033°37'3 1.5 26.0
2014-Oct-26 16:00N 26°51' W 033°35'0 0.0 26.0
2014-Oct-26 15:45N 26°51' W 033°35'0 0.0 26.0
2014-Oct-26 14:15N 26°51' W 033°35'0 0.1 25.9
2014-Oct-26 12:45N 26°51' W 033°35'0 0.0 25.8
2014-Oct-26 12:00N 26°51' W 033°35'1 4.2 25.8
2014-Oct-26 11:45N 26°52' W 033°35'0 0.0 25.8
2014-Oct-26 09:15N 26°52' W 033°35'1 1.2 25.7
2014-Oct-26 08:15N 26°53' W 033°34'0 0.0 25.7
2014-Oct-26 08:00N 26°53' W 033°34'1 4.8 25.7
2014-Oct-26 07:45N 26°52' W 033°35'1 4.8 25.7
2014-Oct-26 07:30N 26°53' W 033°34'0 0.0 25.7
2014-Oct-26 06:30N 26°53' W 033°34'1 0.4 25.7
2014-Oct-26 04:30N 26°53' W 033°34'1 0.2 25.7
2014-Oct-26 00:15N 26°54' W 033°34'0 0.1 25.7
2014-Oct-25 23:30N 26°54' W 033°34'0 0.0 25.8
2014-Oct-25 23:15N 26°54' W 033°34'1 2.2 25.8
2014-Oct-25 22:45N 26°55' W 033°34'1 1.4 25.8
2014-Oct-25 21:45N 26°56' W 033°32'0 0.0 25.8
2014-Oct-25 21:00N 26°56' W 033°32'0 0.0 25.9
2014-Oct-25 19:45N 26°56' W 033°32'1 3.0 25.9
2014-Oct-25 19:15N 26°56' W 033°34'0 0.0 25.9
2014-Oct-25 18:00N 26°56' W 033°34'1 0.5 26.0
2014-Oct-25 16:00N 26°57' W 033°33'1 0.4 26.0
2014-Oct-25 13:00N 26°58' W 033°34'0 0.3 25.8
2014-Oct-25 12:15N 26°58' W 033°34'1 2.4 25.7
2014-Oct-25 12:00N 26°58' W 033°34'0 0.0 25.7
2014-Oct-25 11:30N 26°58' W 033°34'0 0.0 25.7
2014-Oct-25 11:15N 26°58' W 033°34'0 0.0 25.7
2014-Oct-25 10:30N 26°58' W 033°34'0 0.0 25.7
2014-Oct-25 08:45N 26°58' W 033°34'1 2.5 25.7
2014-Oct-25 08:30N 26°58' W 033°34'0 0.0 25.7
2014-Oct-25 08:15N 26°58' W 033°34'0 0.0 25.7
2014-Oct-25 08:00N 26°58' W 033°34'0 0.0 25.7
2014-Oct-25 07:00N 26°58' W 033°34'1 6.0 25.7
2014-Oct-25 06:45N 26°59' W 033°34'0 0.0 25.7
2014-Oct-25 06:30N 26°59' W 033°34'0 0.0 25.7
2014-Oct-25 04:45N 26°59' W 033°34'1 4.3 25.7
2014-Oct-25 04:30N 27°00' W 033°34'0 0.0 25.7
2014-Oct-25 03:00N 27°00' W 033°34'0 0.0 25.8
2014-Oct-24 23:45N 27°00' W 033°34'1 0.8 25.7
2014-Oct-24 23:00N 27°00' W 033°35'2 2.0 25.7
2014-Oct-24 22:15N 27°01' W 033°35'0 0.0 25.7
2014-Oct-24 22:00N 27°01' W 033°35'1 0.4 25.7
2014-Oct-24 20:00N 27°02' W 033°36'1 5.3 25.7
2014-Oct-24 19:45N 27°03' W 033°36'0 0.0 25.7
2014-Oct-24 18:15N 27°03' W 033°36'0 0.0 25.8
2014-Oct-24 18:00N 27°03' W 033°36'0 0.0 25.8
2014-Oct-24 16:15N 27°03' W 033°36'0 0.0 25.8
2014-Oct-24 16:00N 27°03' W 033°36'2 1.1 25.8
2014-Oct-24 14:30N 27°04' W 033°37'1 0.5 25.8
2014-Oct-24 12:30N 27°05' W 033°37'0 0.0 25.7
2014-Oct-24 11:45N 27°05' W 033°37'1 0.8 25.7
2014-Oct-24 11:00N 27°05' W 033°38'0 0.0 25.7
2014-Oct-24 10:45N 27°05' W 033°38'0 0.3 25.6
2014-Oct-24 09:15N 27°05' W 033°38'0 0.0 25.6
2014-Oct-24 08:30N 27°05' W 033°38'0 0.0 25.6
2014-Oct-24 08:15N 27°05' W 033°38'1 0.8 25.6
2014-Oct-24 07:00N 27°06' W 033°39'0 0.0 25.6
2014-Oct-24 06:45N 27°06' W 033°39'1 0.4 25.6
2014-Oct-24 05:15N 27°06' W 033°38'0 0.0 25.6
2014-Oct-24 05:00N 27°06' W 033°38'1 6.0 25.6
2014-Oct-24 04:45N 27°08' W 033°39'0 0.0 25.6
2014-Oct-24 03:15N 27°08' W 033°39'0 0.0 25.6
2014-Oct-24 00:15N 27°07' W 033°39'0 0.0 25.6
2014-Oct-24 00:00N 27°07' W 033°39'0 0.2 25.6
2014-Oct-23 23:15N 27°07' W 033°39'1 1.4 25.6
2014-Oct-23 22:30N 27°08' W 033°39'0 0.0 25.6
2014-Oct-23 22:00N 27°08' W 033°39'1 0.8 25.6
2014-Oct-23 20:15N 27°10' W 033°40'1 0.8 25.6
2014-Oct-23 18:30N 27°11' W 033°39'0 0.0 25.7
2014-Oct-23 18:15N 27°11' W 033°39'0 0.0 25.7
2014-Oct-23 16:45N 27°11' W 033°39'0 0.3 25.8
2014-Oct-23 16:30N 27°11' W 033°39'0 0.0 25.8
2014-Oct-23 16:15N 27°11' W 033°39'2 1.3 25.8
2014-Oct-23 14:45N 27°12' W 033°41'0 0.0 25.8
2014-Oct-23 13:00N 27°12' W 033°41'1 2.3 25.7
2014-Oct-23 12:45N 27°13' W 033°41'0 0.3 25.7
2014-Oct-23 12:15N 27°13' W 033°41'0 0.0 25.7
2014-Oct-23 12:00N 27°13' W 033°41'1 1.2 25.7
2014-Oct-23 11:15N 27°14' W 033°41'0 0.0 25.7
2014-Oct-23 09:00N 27°14' W 033°41'0 0.0 25.6
2014-Oct-23 08:45N 27°14' W 033°41'0 0.2 25.6
2014-Oct-23 07:00N 27°14' W 033°41'1 1.9 25.6
2014-Oct-23 06:30N 27°15' W 033°41'0 0.0 25.7
2014-Oct-23 05:30N 27°15' W 033°41'0 0.0 25.7
2014-Oct-23 05:15N 27°15' W 033°41'0 0.0 25.6
2014-Oct-23 05:00N 27°15' W 033°41'2 1.0 25.7
2014-Oct-23 03:30N 27°16' W 033°42'0 0.0 25.7
2014-Oct-23 03:15N 27°16' W 033°42'1 0.3 25.7
2014-Oct-22 23:45N 27°17' W 033°42'1 1.1 25.7
2014-Oct-22 22:45N 27°18' W 033°42'1 0.3 25.7
2014-Oct-22 18:45N 27°19' W 033°42'1 0.4 25.8
2014-Oct-22 17:00N 27°20' W 033°42'0 0.0 25.8
2014-Oct-22 16:45N 27°20' W 033°42'0 0.0 25.8
2014-Oct-22 16:30N 27°20' W 033°42'1 0.9 25.9
2014-Oct-22 15:00N 27°21' W 033°43'0 0.0 25.8
2014-Oct-22 14:45N 27°21' W 033°43'0 0.2 25.8
2014-Oct-22 12:30N 27°21' W 033°43'0 0.0 25.8
2014-Oct-22 12:15N 27°21' W 033°43'0 0.5 25.8
2014-Oct-22 11:30N 27°22' W 033°42'0 0.0 25.8
2014-Oct-22 09:15N 27°22' W 033°42'0 0.0 25.7
2014-Oct-22 08:45N 27°22' W 033°42'0 0.0 25.7
2014-Oct-22 08:30N 27°22' W 033°42'2 1.2 25.7
2014-Oct-22 07:15N 27°23' W 033°42'1 2.2 25.7
2014-Oct-22 07:00N 27°23' W 033°42'1 0.4 25.7
2014-Oct-22 05:45N 27°23' W 033°42'0 0.0 25.7
2014-Oct-22 05:30N 27°23' W 033°42'0 0.0 25.7
2014-Oct-22 05:15N 27°23' W 033°42'1 0.6 25.7
2014-Oct-22 03:45N 27°24' W 033°43'0 0.0 25.7
2014-Oct-22 03:30N 27°24' W 033°43'2 0.6 25.7
2014-Oct-22 00:45N 27°26' W 033°43'0 0.0 25.7
2014-Oct-22 00:00N 27°26' W 033°43'1 1.9 25.8
2014-Oct-21 23:15N 27°27' W 033°42'0 0.0 25.8
2014-Oct-21 23:00N 27°27' W 033°42'0 0.0 25.8
2014-Oct-21 21:30N 27°27' W 033°42'0 0.0 25.8
2014-Oct-21 21:15N 27°27' W 033°42'1 0.8 25.8
2014-Oct-21 19:45N 27°28' W 033°41'1 1.9 25.8
2014-Oct-21 19:15N 27°28' W 033°42'1 2.9 25.8
2014-Oct-21 19:00N 27°27' W 033°43'1 5.2 25.8
2014-Oct-21 18:45N 27°29' W 033°43'0 0.0 25.8
2014-Oct-21 17:30N 27°29' W 033°43'0 1.1 25.8
2014-Oct-21 17:15N 27°29' W 033°42'0 0.0 25.8
2014-Oct-21 17:00N 27°29' W 033°42'0 0.0 25.8
2014-Oct-21 16:45N 27°29' W 033°42'1 0.5 25.8
2014-Oct-21 15:15N 27°29' W 033°43'0 0.0 25.8
2014-Oct-21 15:00N 27°29' W 033°43'2 0.8 25.8
2014-Oct-21 12:00N 27°31' W 033°41'0 0.0 25.8
2014-Oct-21 11:45N 27°31' W 033°41'0 0.0 25.8
2014-Oct-21 11:00N 27°31' W 033°41'0 0.0 25.8
2014-Oct-21 09:15N 27°31' W 033°41'0 0.0 25.8
2014-Oct-21 09:00N 27°31' W 033°41'0 0.0 25.8
2014-Oct-21 08:00N 27°31' W 033°41'1 2.4 25.8
2014-Oct-21 07:30N 27°32' W 033°42'0 0.0 25.8
2014-Oct-21 06:30N 27°32' W 033°42'0 0.0 25.8
2014-Oct-21 06:15N 27°32' W 033°42'1 1.6 25.7
2014-Oct-21 05:45N 27°32' W 033°41'0 0.0 25.8
2014-Oct-21 05:30N 27°32' W 033°41'1 4.8 25.8
2014-Oct-21 05:15N 27°33' W 033°41'   25.8

Dump ship's entire track history